createdAt,value
2022-11-28T00:00:52.999Z,2.22
2022-11-28T00:01:55.748Z,2.75
2022-11-28T00:02:57.668Z,2.33
2022-11-28T00:04:00.540Z,2.88
2022-11-28T00:05:02.550Z,2.90
2022-11-28T00:06:05.995Z,2.78
2022-11-28T00:07:07.967Z,2.72
2022-11-28T00:08:10.795Z,2.72
2022-11-28T00:09:13.172Z,2.67
2022-11-28T00:10:16.001Z,2.50
2022-11-28T00:11:19.119Z,2.47
2022-11-28T00:12:21.945Z,2.90
2022-11-28T00:13:23.624Z,2.80
2022-11-28T00:14:26.375Z,2.88
2022-11-28T00:15:28.149Z,2.70
2022-11-28T00:16:30.916Z,2.75
2022-11-28T00:17:32.636Z,2.70
2022-11-28T00:18:35.632Z,2.95
2022-11-28T00:19:37.333Z,2.47
2022-11-28T00:20:39.983Z,2.55
2022-11-28T00:21:42.123Z,3.30
2022-11-28T00:22:44.807Z,3.25
2022-11-28T00:23:48.158Z,2.85
2022-11-28T00:24:51.116Z,2.53
2022-11-28T00:25:57.406Z,2.75
2022-11-28T00:27:01.516Z,2.65
2022-11-28T00:28:03.226Z,2.78
2022-11-28T00:29:06.895Z,3.20
2022-11-28T00:30:10.824Z,2.70
2022-11-28T00:31:13.397Z,2.90
2022-11-28T00:32:16.246Z,3.10
2022-11-28T00:33:18.009Z,2.67
2022-11-28T00:34:20.878Z,2.92
2022-11-28T00:35:22.540Z,3.05
2022-11-28T00:36:26.125Z,3.05
2022-11-28T00:37:27.857Z,2.97
2022-11-28T00:38:31.011Z,3.00
2022-11-28T00:39:32.691Z,2.80
2022-11-28T00:40:35.366Z,2.90
2022-11-28T00:41:37.238Z,3.20
2022-11-28T00:42:41.257Z,3.35
2022-11-28T00:43:44.119Z,2.78
2022-11-28T00:44:46.966Z,2.90
2022-11-28T00:45:48.775Z,3.17
2022-11-28T00:46:51.548Z,3.28
2022-11-28T00:47:53.313Z,3.15
2022-11-28T00:48:56.104Z,3.13
2022-11-28T00:49:58.769Z,3.38
2022-11-28T00:51:06.355Z,3.17
2022-11-28T00:52:09.142Z,2.92
2022-11-28T00:53:10.903Z,3.67
2022-11-28T00:54:13.618Z,2.88
2022-11-28T00:55:15.304Z,3.08
2022-11-28T00:56:19.819Z,2.88
2022-11-28T00:57:21.482Z,3.42
2022-11-28T00:58:25.504Z,3.10
2022-11-28T00:59:27.343Z,3.40
2022-11-28T01:00:29.981Z,2.97
2022-11-28T01:01:33.469Z,2.72
2022-11-28T01:02:36.276Z,3.08
2022-11-28T01:03:39.309Z,3.40
2022-11-28T01:04:42.255Z,3.28
2022-11-28T01:05:44.103Z,3.17
2022-11-28T01:06:48.640Z,3.40
2022-11-28T01:07:50.437Z,3.17
2022-11-28T01:08:53.122Z,3.47
2022-11-28T01:09:56.006Z,3.20
2022-11-28T01:10:57.885Z,4.03
2022-11-28T01:12:00.571Z,3.15
2022-11-28T01:13:02.356Z,2.97
2022-11-28T01:14:06.900Z,3.60
2022-11-28T01:15:12.575Z,3.85
2022-11-28T01:16:15.311Z,3.47
2022-11-28T01:17:17.095Z,3.42
2022-11-28T01:18:19.827Z,3.17
2022-11-28T01:19:21.888Z,3.63
2022-11-28T01:20:24.659Z,3.53
2022-11-28T01:21:26.664Z,3.40
2022-11-28T01:22:29.385Z,3.22
2022-11-28T01:23:31.403Z,3.17
2022-11-28T01:24:34.213Z,3.08
2022-11-28T01:25:35.892Z,3.08
2022-11-28T01:26:40.425Z,3.45
2022-11-28T01:27:42.092Z,2.85
2022-11-28T01:28:44.859Z,3.28
2022-11-28T01:29:48.865Z,3.50
2022-11-28T01:30:50.786Z,3.22
2022-11-28T01:31:53.625Z,3.40
2022-11-28T01:32:55.366Z,3.38
2022-11-28T01:33:58.272Z,3.20
2022-11-28T01:34:59.935Z,3.35
2022-11-28T01:36:03.235Z,3.25
2022-11-28T01:37:04.920Z,3.13
2022-11-28T01:38:07.574Z,3.30
2022-11-28T01:39:10.932Z,3.13
2022-11-28T01:40:13.733Z,3.50
2022-11-28T01:41:18.032Z,3.40
2022-11-28T01:42:20.323Z,3.33
2022-11-28T01:43:23.822Z,3.30
2022-11-28T01:45:07.513Z,3.05
2022-11-28T01:46:10.924Z,2.67
2022-11-28T01:47:12.773Z,3.35
2022-11-28T01:48:18.974Z,2.97
2022-11-28T01:49:23.784Z,3.17
2022-11-28T01:50:26.999Z,3.10
2022-11-28T01:51:30.011Z,3.20
2022-11-28T01:52:32.867Z,3.20
2022-11-28T01:53:37.033Z,2.67
2022-11-28T01:54:41.080Z,3.40
2022-11-28T01:55:47.380Z,3.22
2022-11-28T01:56:53.993Z,3.63
2022-11-28T01:57:56.327Z,3.05
2022-11-28T01:59:04.552Z,2.95
2022-11-28T02:00:10.138Z,3.00
2022-11-28T02:01:13.216Z,3.17
2022-11-28T02:02:18.679Z,3.63
2022-11-28T02:03:23.869Z,3.00
2022-11-28T02:04:27.467Z,3.17
2022-11-28T02:05:30.339Z,3.08
2022-11-28T02:06:32.724Z,2.75
2022-11-28T02:07:36.045Z,3.08
2022-11-28T02:08:37.807Z,3.28
2022-11-28T02:09:40.581Z,2.80
2022-11-28T02:11:05.917Z,3.30
2022-11-28T02:12:16.333Z,2.50
2022-11-28T02:13:27.413Z,3.00
2022-11-28T02:14:44.361Z,3.10
2022-11-28T02:16:07.665Z,3.38
2022-11-28T02:17:17.018Z,2.95
2022-11-28T02:18:31.010Z,2.80
2022-11-28T02:20:08.376Z,3.45
2022-11-28T02:21:22.990Z,3.05
2022-11-28T02:22:30.746Z,2.90
2022-11-28T02:23:50.146Z,2.95
2022-11-28T02:25:01.493Z,2.78
2022-11-28T02:26:20.099Z,2.78
2022-11-28T02:27:38.823Z,3.35
2022-11-28T02:29:00.889Z,2.78
2022-11-28T02:30:10.864Z,3.42
2022-11-28T02:31:27.429Z,3.10
2022-11-28T02:32:37.366Z,3.13
2022-11-28T02:33:44.829Z,2.80
2022-11-28T02:34:52.861Z,3.15
2022-11-28T02:36:03.769Z,2.85
2022-11-28T02:37:08.456Z,3.13
2022-11-28T02:38:17.872Z,2.90
2022-11-28T02:39:24.374Z,2.63
2022-11-28T02:40:30.299Z,2.90
2022-11-28T02:41:36.300Z,2.95
2022-11-28T02:42:45.490Z,3.10
2022-11-28T02:43:56.961Z,3.10
2022-11-28T02:45:06.966Z,2.97
2022-11-28T02:46:13.962Z,2.75
2022-11-28T02:47:19.335Z,3.40
2022-11-28T02:48:28.573Z,3.53
2022-11-28T02:49:36.140Z,3.20
2022-11-28T02:50:43.046Z,2.95
2022-11-28T02:51:48.003Z,3.28
2022-11-28T02:52:52.272Z,3.10
2022-11-28T02:53:56.047Z,3.10
2022-11-28T02:54:58.802Z,2.95
2022-11-28T02:56:01.958Z,3.35
2022-11-28T02:57:03.685Z,2.92
2022-11-28T02:58:06.420Z,3.08
2022-11-28T02:59:32.267Z,3.10
2022-11-28T03:00:36.476Z,3.03
2022-11-28T03:01:38.660Z,3.10
2022-11-28T03:02:41.395Z,2.95
2022-11-28T03:03:53.280Z,2.97
2022-11-28T03:05:00.218Z,3.33
2022-11-28T03:06:08.450Z,2.95
2022-11-28T03:07:20.862Z,3.30
2022-11-28T03:08:33.966Z,3.08
2022-11-28T03:09:52.839Z,3.25
2022-11-28T03:10:59.463Z,3.20
2022-11-28T03:12:11.410Z,2.60
2022-11-28T03:13:22.406Z,3.15
2022-11-28T03:14:32.083Z,3.20
2022-11-28T03:15:50.793Z,3.17
2022-11-28T03:17:05.845Z,2.85
2022-11-28T03:18:11.729Z,3.08
2022-11-28T03:19:21.378Z,3.17
2022-11-28T03:20:27.742Z,3.00
2022-11-28T03:21:37.216Z,2.97
2022-11-28T03:22:43.219Z,3.33
2022-11-28T03:23:48.419Z,3.10
2022-11-28T03:24:54.834Z,3.40
2022-11-28T03:25:58.894Z,3.33
2022-11-28T03:27:05.991Z,3.13
2022-11-28T03:28:11.116Z,3.22
2022-11-28T03:29:17.459Z,3.25
2022-11-28T03:30:24.164Z,3.35
2022-11-28T03:31:30.386Z,3.72
2022-11-28T03:32:33.950Z,2.97
2022-11-28T03:33:38.631Z,3.53
2022-11-28T03:34:44.693Z,4.00
2022-11-28T03:35:48.482Z,3.30
2022-11-28T03:36:53.389Z,3.60
2022-11-28T03:38:00.028Z,3.40
2022-11-28T03:39:08.208Z,3.80
2022-11-28T03:40:14.390Z,3.40
2022-11-28T03:41:19.403Z,3.20
2022-11-28T03:42:23.610Z,3.72
2022-11-28T03:43:28.175Z,3.40
2022-11-28T03:44:37.076Z,3.95
2022-11-28T03:45:40.672Z,3.70
2022-11-28T03:46:46.631Z,3.50
2022-11-28T03:47:53.807Z,3.53
2022-11-28T03:48:59.659Z,3.10
2022-11-28T03:50:05.408Z,3.70
2022-11-28T03:51:11.120Z,4.45
2022-11-28T03:52:15.932Z,3.75
2022-11-28T03:53:22.146Z,3.95
2022-11-28T03:54:28.407Z,3.58
2022-11-28T03:55:36.529Z,3.92
2022-11-28T03:56:43.662Z,4.03
2022-11-28T03:57:49.188Z,3.70
2022-11-28T03:58:56.606Z,3.50
2022-11-28T04:00:00.413Z,3.55
2022-11-28T04:01:09.707Z,4.40
2022-11-28T04:02:16.595Z,3.78
2022-11-28T04:03:27.369Z,3.78
2022-11-28T04:04:31.927Z,3.58
2022-11-28T04:05:43.226Z,3.70
2022-11-28T04:06:53.010Z,3.83
2022-11-28T04:07:59.581Z,3.85
2022-11-28T04:09:07.127Z,3.58
2022-11-28T04:10:17.287Z,3.25
2022-11-28T04:11:22.025Z,3.47
2022-11-28T04:12:31.603Z,3.78
2022-11-28T04:13:37.495Z,3.70
2022-11-28T04:14:42.532Z,4.38
2022-11-28T04:15:49.644Z,4.15
2022-11-28T04:16:54.273Z,3.83
2022-11-28T04:17:59.751Z,4.13
2022-11-28T04:19:05.880Z,4.18
2022-11-28T04:20:11.723Z,4.07
2022-11-28T04:21:18.237Z,4.10
2022-11-28T04:22:24.487Z,4.10
2022-11-28T04:23:27.991Z,4.47
2022-11-28T04:24:32.083Z,4.57
2022-11-28T04:25:37.403Z,3.88
2022-11-28T04:26:42.522Z,4.72
2022-11-28T04:27:47.750Z,4.37
2022-11-28T04:28:50.214Z,4.05
2022-11-28T04:29:55.785Z,4.00
2022-11-28T04:30:59.831Z,3.80
2022-11-28T04:32:02.967Z,4.03
2022-11-28T04:33:07.990Z,4.07
2022-11-28T04:34:12.806Z,4.43
2022-11-28T04:35:17.396Z,4.20
2022-11-28T04:36:24.045Z,3.95
2022-11-28T04:37:27.390Z,4.20
2022-11-28T04:38:32.319Z,4.03
2022-11-28T04:39:35.143Z,4.67
2022-11-28T04:40:42.434Z,4.13
2022-11-28T04:41:48.719Z,4.57
2022-11-28T04:42:54.491Z,4.30
2022-11-28T04:44:00.262Z,3.90
2022-11-28T04:45:07.155Z,4.32
2022-11-28T04:46:12.227Z,4.15
2022-11-28T04:47:15.161Z,4.03
2022-11-28T04:48:17.012Z,4.28
2022-11-28T04:49:19.930Z,4.23
2022-11-28T04:50:24.068Z,4.10
2022-11-28T04:51:34.042Z,4.20
2022-11-28T04:52:39.315Z,3.83
2022-11-28T04:53:47.638Z,4.30
2022-11-28T04:54:53.526Z,4.05
2022-11-28T04:56:01.341Z,4.00
2022-11-28T04:57:09.887Z,3.83
2022-11-28T04:58:15.520Z,3.67
2022-11-28T04:59:17.617Z,4.50
2022-11-28T05:00:22.139Z,3.95
2022-11-28T05:01:26.266Z,4.20
2022-11-28T05:02:29.867Z,4.20
2022-11-28T05:03:32.137Z,4.05
2022-11-28T05:04:38.476Z,4.25
2022-11-28T05:05:45.166Z,4.22
2022-11-28T05:06:49.188Z,4.33
2022-11-28T05:07:51.793Z,3.95
2022-11-28T05:08:54.498Z,3.95
2022-11-28T05:09:57.829Z,4.03
2022-11-28T05:11:00.538Z,4.10
2022-11-28T05:12:02.733Z,4.13
2022-11-28T05:13:05.596Z,4.32
2022-11-28T05:14:07.561Z,3.80
2022-11-28T05:15:12.015Z,3.67
2022-11-28T05:16:14.369Z,4.15
2022-11-28T05:17:17.033Z,3.60
2022-11-28T05:18:18.792Z,4.00
2022-11-28T05:19:21.413Z,4.20
2022-11-28T05:20:23.439Z,4.30
2022-11-28T05:21:26.119Z,4.32
2022-11-28T05:22:29.241Z,4.57
2022-11-28T05:23:32.148Z,4.00
2022-11-28T05:24:33.851Z,3.95
2022-11-28T05:25:38.835Z,3.78
2022-11-28T05:26:41.185Z,4.18
2022-11-28T05:27:43.867Z,4.20
2022-11-28T05:28:45.861Z,4.43
2022-11-28T05:29:52.250Z,4.30
2022-11-28T05:30:57.127Z,3.90
2022-11-28T05:32:00.058Z,3.60
2022-11-28T05:33:02.756Z,3.92
2022-11-28T05:34:05.436Z,4.05
2022-11-28T05:35:07.964Z,3.97
2022-11-28T05:36:13.317Z,4.18
2022-11-28T05:37:16.043Z,4.25
2022-11-28T05:38:20.060Z,4.22
2022-11-28T05:39:21.711Z,3.90
2022-11-28T05:40:24.487Z,4.03
2022-11-28T05:41:27.898Z,3.97
2022-11-28T05:42:33.850Z,3.90
2022-11-28T05:43:35.617Z,4.35
2022-11-28T05:44:38.807Z,4.20
2022-11-28T05:45:40.972Z,3.85
2022-11-28T05:46:43.710Z,3.63
2022-11-28T05:47:45.449Z,3.80
2022-11-28T05:48:48.279Z,4.05
2022-11-28T05:49:50.005Z,3.65
2022-11-28T05:50:52.983Z,3.90
2022-11-28T05:51:54.655Z,3.70
2022-11-28T05:52:57.347Z,3.78
2022-11-28T05:54:00.973Z,4.00
2022-11-28T05:55:03.711Z,3.38
2022-11-28T05:56:08.912Z,3.88
2022-11-28T05:57:11.635Z,3.88
2022-11-28T05:58:13.674Z,3.85
2022-11-28T05:59:16.436Z,3.67
2022-11-28T06:00:19.394Z,3.90
2022-11-28T06:01:24.087Z,4.25
2022-11-28T06:02:26.101Z,3.77
2022-11-28T06:03:28.810Z,3.92
2022-11-28T06:04:30.634Z,3.42
2022-11-28T06:05:47.537Z,4.00
2022-11-28T06:06:52.376Z,3.75
2022-11-28T06:07:54.261Z,3.70
2022-11-28T06:08:57.235Z,4.17
2022-11-28T06:10:00.289Z,4.05
2022-11-28T06:11:02.948Z,3.85
2022-11-28T06:12:04.961Z,3.70
2022-11-28T06:13:07.796Z,4.07
2022-11-28T06:14:10.272Z,3.87
2022-11-28T06:15:13.113Z,3.80
2022-11-28T06:16:17.123Z,3.73
2022-11-28T06:17:18.860Z,3.38
2022-11-28T06:18:21.547Z,3.77
2022-11-28T06:19:24.353Z,3.93
2022-11-28T06:20:26.219Z,3.57
2022-11-28T06:21:29.624Z,3.67
2022-11-28T06:22:31.301Z,3.90
2022-11-28T06:23:34.018Z,3.90
2022-11-28T06:24:36.742Z,3.45
2022-11-28T06:25:39.857Z,3.78
2022-11-28T06:26:42.642Z,4.05
2022-11-28T06:27:44.368Z,3.85
2022-11-28T06:28:47.411Z,3.72
2022-11-28T06:29:50.068Z,3.80
2022-11-28T06:30:52.082Z,4.00
2022-11-28T06:31:56.083Z,3.85
2022-11-28T06:32:57.786Z,4.25
2022-11-28T06:34:00.755Z,4.22
2022-11-28T06:35:02.476Z,4.05
2022-11-28T06:36:06.712Z,4.13
2022-11-28T06:37:08.510Z,4.32
2022-11-28T06:38:14.190Z,4.43
2022-11-28T06:39:18.181Z,3.85
2022-11-28T06:40:19.942Z,4.40
2022-11-28T06:41:24.163Z,3.83
2022-11-28T06:42:25.921Z,4.05
2022-11-28T06:43:29.575Z,3.83
2022-11-28T06:44:31.450Z,4.05
2022-11-28T06:45:34.688Z,4.30
2022-11-28T06:46:36.551Z,4.28
2022-11-28T06:47:39.435Z,4.45
2022-11-28T06:48:41.433Z,4.75
2022-11-28T06:49:44.663Z,4.43
2022-11-28T06:50:46.795Z,4.00
2022-11-28T06:51:49.725Z,4.53
2022-11-28T06:52:51.626Z,5.07
2022-11-28T06:53:55.573Z,4.80
2022-11-28T06:54:57.547Z,4.88
2022-11-28T06:56:05.837Z,4.90
2022-11-28T06:57:10.099Z,5.25
2022-11-28T06:58:12.032Z,5.75
2022-11-28T06:59:14.922Z,6.28
2022-11-28T07:00:17.660Z,5.82
2022-11-28T07:01:22.174Z,5.57
2022-11-28T07:02:25.246Z,5.45
2022-11-28T07:03:28.218Z,5.30
2022-11-28T07:04:30.289Z,5.07
2022-11-28T07:05:33.155Z,4.90
2022-11-28T07:06:36.098Z,4.55
2022-11-28T07:07:50.249Z,4.95
2022-11-28T07:08:58.694Z,4.18
2022-11-28T07:10:00.550Z,3.90
2022-11-28T07:11:14.331Z,4.07
2022-11-28T07:12:18.692Z,4.05
2022-11-28T07:13:20.625Z,4.20
2022-11-28T07:14:24.048Z,3.97
2022-11-28T07:15:26.483Z,4.28
2022-11-28T07:16:30.949Z,4.43
2022-11-28T07:17:32.847Z,4.43
2022-11-28T07:18:35.958Z,4.20
2022-11-28T07:19:37.847Z,4.13
2022-11-28T07:20:40.748Z,4.40
2022-11-28T07:21:43.740Z,4.05
2022-11-28T07:22:47.046Z,4.43
2022-11-28T07:23:50.189Z,4.28
2022-11-28T07:24:52.305Z,4.47
2022-11-28T07:25:59.795Z,4.18
2022-11-28T07:27:02.700Z,4.43
2022-11-28T07:28:06.190Z,3.85
2022-11-28T07:29:10.112Z,4.35
2022-11-28T07:30:12.362Z,4.43
2022-11-28T07:31:17.279Z,4.43
2022-11-28T07:32:19.106Z,4.03
2022-11-28T07:33:22.114Z,3.80
2022-11-28T07:34:24.942Z,4.03
2022-11-28T07:35:26.825Z,4.78
2022-11-28T07:36:30.667Z,4.55
2022-11-28T07:37:32.494Z,4.47
2022-11-28T07:38:35.602Z,4.30
2022-11-28T07:39:39.014Z,4.40
2022-11-28T07:40:40.863Z,4.18
2022-11-28T07:41:43.662Z,4.32
2022-11-28T07:42:45.441Z,4.32
2022-11-28T07:43:50.132Z,4.60
2022-11-28T07:44:52.027Z,4.93
2022-11-28T07:46:00.894Z,3.95
2022-11-28T07:47:04.517Z,5.40
2022-11-28T07:48:06.630Z,4.18
2022-11-28T07:49:09.518Z,4.53
2022-11-28T07:50:11.504Z,4.50
2022-11-28T07:51:16.785Z,4.25
2022-11-28T07:52:18.681Z,4.20
2022-11-28T07:53:21.511Z,3.97
2022-11-28T07:54:23.643Z,4.00
2022-11-28T07:55:26.746Z,4.35
2022-11-28T07:56:50.172Z,4.50
2022-11-28T07:57:53.879Z,3.67
2022-11-28T07:59:01.858Z,4.85
2022-11-28T08:00:07.163Z,3.97
2022-11-28T08:01:09.889Z,4.00
2022-11-28T08:02:13.006Z,3.80
2022-11-28T08:03:14.740Z,4.43
2022-11-28T08:04:17.409Z,4.03
2022-11-28T08:05:19.259Z,4.03
2022-11-28T08:06:23.687Z,4.15
2022-11-28T08:07:25.512Z,3.90
2022-11-28T08:08:28.209Z,4.03
2022-11-28T08:09:31.915Z,4.18
2022-11-28T08:10:33.631Z,4.07
2022-11-28T08:11:37.199Z,3.95
2022-11-28T08:12:38.850Z,4.22
2022-11-28T08:13:41.885Z,4.30
2022-11-28T08:14:46.117Z,4.20
2022-11-28T08:15:47.839Z,3.90
2022-11-28T08:16:50.595Z,4.00
2022-11-28T08:17:53.341Z,4.05
2022-11-28T08:18:56.977Z,3.78
2022-11-28T08:19:58.688Z,4.18
2022-11-28T08:21:05.753Z,3.92
2022-11-28T08:22:08.677Z,4.00
2022-11-28T08:23:10.578Z,3.75
2022-11-28T08:24:13.310Z,3.80
2022-11-28T08:25:15.246Z,4.43
2022-11-28T08:26:18.858Z,4.68
2022-11-28T08:27:20.519Z,4.30
2022-11-28T08:28:23.213Z,4.35
2022-11-28T08:29:25.886Z,4.47
2022-11-28T08:30:29.226Z,3.83
2022-11-28T08:31:33.799Z,4.32
2022-11-28T08:32:36.470Z,4.43
2022-11-28T08:33:38.667Z,5.25
2022-11-28T08:34:41.327Z,3.95
2022-11-28T08:35:44.035Z,4.10
2022-11-28T08:36:47.424Z,4.40
2022-11-28T08:37:49.174Z,4.28
2022-11-28T08:40:15.146Z,4.50
2022-11-28T08:41:19.163Z,4.13
2022-11-28T08:42:22.391Z,4.60
2022-11-28T08:43:24.036Z,4.25
2022-11-28T08:44:27.601Z,4.60
2022-11-28T08:45:31.782Z,4.68
2022-11-28T08:46:34.858Z,4.30
2022-11-28T08:47:37.616Z,4.63
2022-11-28T08:48:40.432Z,4.28
2022-11-28T08:49:43.278Z,5.05
2022-11-28T08:50:48.003Z,4.45
2022-11-28T08:51:50.976Z,5.05
2022-11-28T08:52:53.664Z,5.15
2022-11-28T08:53:59.302Z,5.60
2022-11-28T08:55:02.592Z,5.50
2022-11-28T08:56:05.510Z,5.25
2022-11-28T08:57:07.238Z,5.60
2022-11-28T08:58:09.971Z,4.97
2022-11-28T08:59:14.352Z,5.20
2022-11-28T09:00:17.455Z,5.03
2022-11-28T09:01:22.918Z,4.90
2022-11-28T09:02:26.257Z,5.80
2022-11-28T09:03:28.169Z,4.90
2022-11-28T09:04:30.852Z,5.85
2022-11-28T09:05:33.690Z,5.63
2022-11-28T09:06:36.762Z,5.57
2022-11-28T09:07:39.584Z,5.28
2022-11-28T09:08:42.326Z,5.20
2022-11-28T09:09:45.391Z,5.30
2022-11-28T09:10:48.000Z,4.22
2022-11-28T09:11:50.626Z,4.07
2022-11-28T09:12:53.450Z,3.80
2022-11-28T09:13:56.762Z,3.78
2022-11-28T09:14:58.496Z,3.70
2022-11-28T09:16:01.130Z,3.58
2022-11-28T09:17:05.518Z,4.00
2022-11-28T09:18:07.554Z,4.65
2022-11-28T09:19:10.775Z,3.92
2022-11-28T09:20:14.220Z,3.97
2022-11-28T09:21:16.096Z,4.10
2022-11-28T09:22:18.749Z,4.28
2022-11-28T09:23:21.534Z,3.97
2022-11-28T09:24:24.654Z,3.83
2022-11-28T09:25:27.364Z,4.13
2022-11-28T09:26:30.123Z,4.00
2022-11-28T09:27:31.859Z,4.28
2022-11-28T09:28:34.632Z,4.13
2022-11-28T09:29:37.319Z,3.60
2022-11-28T09:30:40.597Z,4.35
2022-11-28T09:31:47.304Z,4.10
2022-11-28T09:32:51.777Z,3.60
2022-11-28T09:33:54.675Z,3.83
2022-11-28T09:34:56.490Z,4.30
2022-11-28T09:35:59.288Z,3.95
2022-11-28T09:37:04.841Z,3.63
2022-11-28T09:38:08.221Z,4.20
2022-11-28T09:39:10.919Z,3.72
2022-11-28T09:40:17.978Z,4.03
2022-11-28T09:41:30.840Z,3.88
2022-11-28T09:42:37.471Z,3.90
2022-11-28T09:43:43.903Z,3.92
2022-11-28T09:44:48.858Z,5.13
2022-11-28T09:45:52.030Z,4.60
2022-11-28T09:46:57.695Z,4.00
2022-11-28T09:48:06.780Z,4.10
2022-11-28T09:49:18.322Z,3.80
2022-11-28T09:50:24.565Z,4.07
2022-11-28T09:51:30.818Z,4.05
2022-11-28T09:52:37.987Z,4.03
2022-11-28T09:53:44.961Z,4.53
2022-11-28T09:54:52.276Z,4.55
2022-11-28T09:55:57.613Z,3.80
2022-11-28T09:57:00.331Z,4.00
2022-11-28T09:58:06.014Z,4.68
2022-11-28T09:59:20.122Z,4.45
2022-11-28T10:00:24.593Z,4.07
2022-11-28T10:01:32.666Z,4.22
2022-11-28T10:02:39.799Z,4.38
2022-11-28T10:03:50.355Z,4.35
2022-11-28T10:05:01.696Z,3.83
2022-11-28T10:06:10.628Z,4.00
2022-11-28T10:07:21.216Z,4.40
2022-11-28T10:08:28.387Z,4.15
2022-11-28T10:09:36.026Z,4.47
2022-11-28T10:10:44.379Z,3.42
2022-11-28T10:11:54.613Z,3.90
2022-11-28T10:13:02.560Z,3.70
2022-11-28T10:14:10.098Z,4.18
2022-11-28T10:15:36.832Z,3.80
2022-11-28T10:16:47.053Z,3.88
2022-11-28T10:17:58.765Z,3.50
2022-11-28T10:19:09.912Z,4.45
2022-11-28T10:20:21.220Z,3.78
2022-11-28T10:21:29.684Z,4.22
2022-11-28T10:22:37.637Z,4.38
2022-11-28T10:23:42.266Z,4.00
2022-11-28T10:24:46.856Z,4.07
2022-11-28T10:25:53.699Z,4.45
2022-11-28T10:26:58.890Z,4.00
2022-11-28T10:28:02.316Z,4.10
2022-11-28T10:29:11.532Z,3.97
2022-11-28T10:30:19.358Z,4.38
2022-11-28T10:31:29.746Z,3.92
2022-11-28T10:32:34.676Z,4.63
2022-11-28T10:33:42.686Z,4.65
2022-11-28T10:34:48.229Z,4.47
2022-11-28T10:35:54.555Z,4.18
2022-11-28T10:37:02.144Z,4.30
2022-11-28T10:38:11.387Z,3.97
2022-11-28T10:39:14.883Z,4.57
2022-11-28T10:40:21.649Z,4.22
2022-11-28T10:41:28.740Z,4.90
2022-11-28T10:42:36.380Z,4.90
2022-11-28T10:43:44.615Z,5.43
2022-11-28T10:44:57.620Z,5.32
2022-11-28T10:46:10.205Z,4.97
2022-11-28T10:47:19.026Z,4.30
2022-11-28T10:48:40.473Z,4.40
2022-11-28T10:49:51.892Z,4.63
2022-11-28T10:51:00.334Z,4.22
2022-11-28T10:52:09.792Z,4.32
2022-11-28T10:53:17.617Z,4.30
2022-11-28T10:54:40.170Z,4.35
2022-11-28T10:56:01.078Z,4.65
2022-11-28T10:57:10.350Z,4.28
2022-11-28T10:58:18.124Z,4.47
2022-11-28T10:59:24.340Z,4.60
2022-11-28T11:00:27.105Z,4.10
2022-11-28T11:01:30.178Z,4.30
2022-11-28T11:02:37.879Z,4.28
2022-11-28T11:03:41.470Z,4.13
2022-11-28T11:04:43.276Z,4.65
2022-11-28T11:05:47.320Z,4.22
2022-11-28T11:07:15.033Z,4.28
2022-11-28T11:08:24.004Z,4.53
2022-11-28T11:09:25.978Z,5.05
2022-11-28T11:10:32.967Z,4.38
2022-11-28T11:11:38.632Z,4.78
2022-11-28T11:12:40.584Z,4.97
2022-11-28T11:13:58.372Z,4.55
2022-11-28T11:15:16.011Z,4.55
2022-11-28T11:16:18.965Z,4.10
2022-11-28T11:17:34.382Z,4.45
2022-11-28T11:18:47.655Z,4.70
2022-11-28T11:19:49.325Z,4.20
2022-11-28T11:20:53.787Z,4.47
2022-11-28T11:22:01.850Z,4.97
2022-11-28T11:23:14.563Z,5.30
2022-11-28T11:24:18.942Z,4.22
2022-11-28T11:25:20.812Z,4.60
2022-11-28T11:26:26.292Z,4.30
2022-11-28T11:27:29.137Z,4.85
2022-11-28T11:28:42.907Z,4.50
2022-11-28T11:29:47.441Z,4.30
2022-11-28T11:30:59.778Z,4.53
2022-11-28T11:32:06.088Z,4.65
2022-11-28T11:33:16.779Z,4.70
2022-11-28T11:34:21.412Z,4.85
2022-11-28T11:35:25.006Z,4.88
2022-11-28T11:36:30.514Z,5.07
2022-11-28T11:37:34.847Z,4.72
2022-11-28T11:38:38.314Z,4.93
2022-11-28T11:39:47.509Z,4.78
2022-11-28T11:40:51.269Z,4.30
2022-11-28T11:42:11.669Z,4.18
2022-11-28T11:43:27.640Z,4.22
2022-11-28T11:44:34.163Z,4.82
2022-11-28T11:45:37.592Z,5.15
2022-11-28T11:46:50.974Z,5.80
2022-11-28T11:47:53.791Z,5.07
2022-11-28T11:48:56.562Z,4.43
2022-11-28T11:50:05.340Z,5.30
2022-11-28T11:51:09.985Z,4.38
2022-11-28T11:52:20.123Z,5.10
2022-11-28T11:53:22.810Z,4.82
2022-11-28T11:54:25.483Z,4.93
2022-11-28T11:55:30.209Z,4.38
2022-11-28T11:56:36.388Z,4.90
2022-11-28T11:57:41.166Z,4.35
2022-11-28T11:58:47.452Z,4.70
2022-11-28T11:59:51.937Z,4.45
2022-11-28T12:00:57.440Z,4.28
2022-11-28T12:02:01.357Z,4.68
2022-11-28T12:03:06.378Z,5.05
2022-11-28T12:04:43.234Z,4.15
2022-11-28T12:06:12.740Z,3.70
2022-11-28T12:07:22.595Z,4.32
2022-11-28T12:08:31.588Z,4.35
2022-11-28T12:09:40.335Z,4.53
2022-11-28T12:10:46.595Z,4.18
2022-11-28T12:11:52.606Z,3.70
2022-11-28T12:12:54.438Z,4.68
2022-11-28T12:13:58.461Z,4.38
2022-11-28T12:15:01.142Z,4.25
2022-11-28T12:16:10.212Z,4.28
2022-11-28T12:17:48.940Z,4.10
2022-11-28T12:19:00.630Z,4.18
2022-11-28T12:20:36.729Z,4.03
2022-11-28T12:21:47.455Z,3.90
2022-11-28T12:22:57.259Z,3.80
2022-11-28T12:24:08.190Z,4.05
2022-11-28T12:25:14.289Z,4.30
2022-11-28T12:26:21.872Z,4.45
2022-11-28T12:27:33.594Z,4.40
2022-11-28T12:28:48.724Z,4.47
2022-11-28T12:30:00.053Z,3.92
2022-11-28T12:31:11.829Z,3.88
2022-11-28T12:32:26.087Z,4.32
2022-11-28T12:33:40.073Z,4.15
2022-11-28T12:34:50.570Z,4.18
2022-11-28T12:36:04.913Z,4.47
2022-11-28T12:37:13.100Z,4.32
2022-11-28T12:38:27.481Z,4.50
2022-11-28T12:39:36.915Z,3.90
2022-11-28T12:40:47.191Z,4.38
2022-11-28T12:42:17.660Z,4.10
2022-11-28T12:43:31.629Z,4.25
2022-11-28T12:44:48.436Z,4.40
2022-11-28T12:45:56.996Z,4.20
2022-11-28T12:47:05.707Z,4.18
2022-11-28T12:48:19.535Z,4.00
2022-11-28T12:49:27.991Z,4.25
2022-11-28T12:50:34.352Z,4.05
2022-11-28T12:51:44.887Z,4.10
2022-11-28T12:52:52.779Z,4.25
2022-11-28T12:54:06.876Z,4.40
2022-11-28T12:55:20.376Z,4.43
2022-11-28T12:56:32.899Z,4.18
2022-11-28T12:57:39.788Z,4.30
2022-11-28T12:58:48.085Z,4.05
2022-11-28T12:59:59.997Z,4.13
2022-11-28T13:01:13.656Z,4.38
2022-11-28T13:02:26.466Z,3.95
2022-11-28T13:03:40.981Z,4.50
2022-11-28T13:04:55.241Z,4.15
2022-11-28T13:06:03.235Z,4.57
2022-11-28T13:07:14.209Z,4.47
2022-11-28T13:08:27.740Z,4.00
2022-11-28T13:09:34.266Z,4.40
2022-11-28T13:10:40.926Z,4.57
2022-11-28T13:11:53.572Z,4.30
2022-11-28T13:12:59.773Z,4.18
2022-11-28T13:14:05.785Z,4.45
2022-11-28T13:15:13.937Z,4.05
2022-11-28T13:16:26.951Z,5.15
2022-11-28T13:17:39.332Z,4.65
2022-11-28T13:18:41.772Z,4.15
2022-11-28T13:19:49.451Z,4.57
2022-11-28T13:20:55.738Z,4.60
2022-11-28T13:22:06.300Z,4.90
2022-11-28T13:23:16.085Z,4.25
2022-11-28T13:24:25.844Z,5.18
2022-11-28T13:25:34.166Z,4.38
2022-11-28T13:26:43.124Z,4.68
2022-11-28T13:27:49.896Z,4.60
2022-11-28T13:28:55.994Z,3.80
2022-11-28T13:30:06.729Z,4.55
2022-11-28T13:31:21.254Z,4.13
2022-11-28T13:32:30.759Z,4.15
2022-11-28T13:33:41.716Z,4.40
2022-11-28T13:34:45.025Z,4.30
2022-11-28T13:35:47.011Z,4.15
2022-11-28T13:38:37.458Z,4.35
2022-11-28T13:39:47.463Z,4.75
2022-11-28T13:40:52.959Z,4.70
2022-11-28T13:42:21.863Z,4.47
2022-11-28T13:43:39.396Z,4.35
2022-11-28T13:44:46.656Z,3.95
2022-11-28T13:45:49.821Z,4.38
2022-11-28T13:46:52.543Z,4.20
2022-11-28T13:47:55.773Z,4.65
2022-11-28T13:49:14.438Z,4.63
2022-11-28T13:50:39.565Z,4.35
2022-11-28T13:51:42.304Z,4.35
2022-11-28T13:52:44.064Z,4.55
2022-11-28T13:53:49.598Z,4.25
2022-11-28T13:54:53.651Z,5.05
2022-11-28T13:56:23.869Z,4.20
2022-11-28T13:57:28.236Z,5.25
2022-11-28T13:58:34.670Z,3.90
2022-11-28T13:59:37.034Z,4.43
2022-11-28T14:00:39.762Z,4.45
2022-11-28T14:01:44.955Z,4.65
2022-11-28T14:02:49.719Z,4.60
2022-11-28T14:03:55.848Z,4.82
2022-11-28T14:04:58.031Z,4.65
2022-11-28T14:06:03.383Z,5.13
2022-11-28T14:07:08.186Z,5.00
2022-11-28T14:08:28.117Z,5.00
2022-11-28T14:09:40.390Z,4.57
2022-11-28T14:10:58.338Z,4.45
2022-11-28T14:12:09.588Z,4.22
2022-11-28T14:13:31.854Z,4.60
2022-11-28T14:14:47.266Z,4.50
2022-11-28T14:15:58.940Z,4.30
2022-11-28T14:17:14.828Z,4.20
2022-11-28T14:20:03.719Z,4.20
2022-11-28T14:21:12.211Z,4.75
2022-11-28T14:22:25.109Z,4.25
2022-11-28T14:23:33.215Z,4.43
2022-11-28T14:24:56.647Z,4.68
2022-11-28T14:25:59.696Z,4.38
2022-11-28T14:27:05.152Z,4.60
2022-11-28T14:28:18.217Z,4.63
2022-11-28T14:29:22.323Z,4.13
2022-11-28T14:30:30.469Z,4.20
2022-11-28T14:31:34.244Z,4.43
2022-11-28T14:32:39.516Z,4.35
2022-11-28T14:33:42.721Z,4.22
2022-11-28T14:34:47.649Z,4.32
2022-11-28T14:36:22.663Z,4.43
2022-11-28T14:37:49.819Z,4.20
2022-11-28T14:39:13.316Z,4.45
2022-11-28T14:40:48.592Z,3.88
2022-11-28T14:44:47.689Z,4.65
2022-11-28T14:45:50.347Z,4.20
2022-11-28T14:47:15.573Z,4.68
2022-11-28T14:48:19.747Z,4.68
2022-11-28T14:49:23.457Z,4.88